sensor_id;sensor_type;location;lat;lon;timestamp;temperature;humidity
30174;DHT22;16985;50.814;8.530;2022-07-09T00:02:04;15.50;94.10
30174;DHT22;16985;50.814;8.530;2022-07-09T00:04:31;15.50;94.20
30174;DHT22;16985;50.814;8.530;2022-07-09T00:06:56;15.50;94.40
30174;DHT22;16985;50.814;8.530;2022-07-09T00:09:23;15.40;94.60
30174;DHT22;16985;50.814;8.530;2022-07-09T00:11:49;15.40;94.40
30174;DHT22;16985;50.814;8.530;2022-07-09T00:14:15;15.40;94.60
30174;DHT22;16985;50.814;8.530;2022-07-09T00:16:41;15.40;94.60
30174;DHT22;16985;50.814;8.530;2022-07-09T00:19:07;15.30;94.70
30174;DHT22;16985;50.814;8.530;2022-07-09T00:21:32;15.30;94.90
30174;DHT22;16985;50.814;8.530;2022-07-09T00:23:58;15.30;94.70
30174;DHT22;16985;50.814;8.530;2022-07-09T00:26:24;15.30;94.90
30174;DHT22;16985;50.814;8.530;2022-07-09T00:28:50;15.20;95.00
30174;DHT22;16985;50.814;8.530;2022-07-09T00:31:15;15.20;95.00
30174;DHT22;16985;50.814;8.530;2022-07-09T00:33:41;15.10;94.90
30174;DHT22;16985;50.814;8.530;2022-07-09T00:36:07;15.10;94.90
30174;DHT22;16985;50.814;8.530;2022-07-09T00:38:33;15.10;95.20
30174;DHT22;16985;50.814;8.530;2022-07-09T00:40:59;15.10;95.00
30174;DHT22;16985;50.814;8.530;2022-07-09T00:43:24;15.00;94.90
30174;DHT22;16985;50.814;8.530;2022-07-09T00:45:50;15.00;95.20
30174;DHT22;16985;50.814;8.530;2022-07-09T00:48:16;14.90;95.50
30174;DHT22;16985;50.814;8.530;2022-07-09T00:50:43;14.90;95.30
30174;DHT22;16985;50.814;8.530;2022-07-09T00:53:14;14.90;95.60
30174;DHT22;16985;50.814;8.530;2022-07-09T00:55:41;15.00;95.70
30174;DHT22;16985;50.814;8.530;2022-07-09T00:58:10;14.80;95.90
30174;DHT22;16985;50.814;8.530;2022-07-09T01:00:37;14.80;95.90
30174;DHT22;16985;50.814;8.530;2022-07-09T01:03:03;14.80;96.10
30174;DHT22;16985;50.814;8.530;2022-07-09T01:05:29;14.80;96.20
30174;DHT22;16985;50.814;8.530;2022-07-09T01:08:04;14.80;96.10
30174;DHT22;16985;50.814;8.530;2022-07-09T01:10:32;14.80;96.20
30174;DHT22;16985;50.814;8.530;2022-07-09T01:12:59;14.80;96.50
30174;DHT22;16985;50.814;8.530;2022-07-09T01:15:25;14.70;96.60
30174;DHT22;16985;50.814;8.530;2022-07-09T01:17:51;14.70;96.80
30174;DHT22;16985;50.814;8.530;2022-07-09T01:20:22;14.60;96.80
30174;DHT22;16985;50.814;8.530;2022-07-09T01:22:48;14.60;96.70
30174;DHT22;16985;50.814;8.530;2022-07-09T01:25:16;14.60;96.80
30174;DHT22;16985;50.814;8.530;2022-07-09T01:27:42;14.60;97.00
30174;DHT22;16985;50.814;8.530;2022-07-09T01:30:08;14.60;97.10
30174;DHT22;16985;50.814;8.530;2022-07-09T01:32:34;14.50;97.70
30174;DHT22;16985;50.814;8.530;2022-07-09T01:35:00;14.60;97.60
30174;DHT22;16985;50.814;8.530;2022-07-09T01:37:27;14.60;97.50
30174;DHT22;16985;50.814;8.530;2022-07-09T01:39:52;14.60;97.30
30174;DHT22;16985;50.814;8.530;2022-07-09T01:42:19;14.60;96.70
30174;DHT22;16985;50.814;8.530;2022-07-09T01:44:46;14.60;96.90
30174;DHT22;16985;50.814;8.530;2022-07-09T01:47:13;14.50;96.60
30174;DHT22;16985;50.814;8.530;2022-07-09T01:49:42;14.50;96.50
30174;DHT22;16985;50.814;8.530;2022-07-09T01:52:09;14.50;96.70
30174;DHT22;16985;50.814;8.530;2022-07-09T01:54:35;14.40;96.60
30174;DHT22;16985;50.814;8.530;2022-07-09T01:57:00;14.40;96.80
30174;DHT22;16985;50.814;8.530;2022-07-09T01:59:26;14.30;96.90
30174;DHT22;16985;50.814;8.530;2022-07-09T02:01:52;14.30;96.90
30174;DHT22;16985;50.814;8.530;2022-07-09T02:04:18;14.30;97.00
30174;DHT22;16985;50.814;8.530;2022-07-09T02:06:43;14.30;97.20
30174;DHT22;16985;50.814;8.530;2022-07-09T02:09:09;14.20;97.30
30174;DHT22;16985;50.814;8.530;2022-07-09T02:11:35;14.20;97.40
30174;DHT22;16985;50.814;8.530;2022-07-09T02:14:01;14.10;97.70
30174;DHT22;16985;50.814;8.530;2022-07-09T02:16:26;14.10;97.50
30174;DHT22;16985;50.814;8.530;2022-07-09T02:18:52;14.10;97.70
30174;DHT22;16985;50.814;8.530;2022-07-09T02:21:18;14.00;97.40
30174;DHT22;16985;50.814;8.530;2022-07-09T02:23:44;14.10;97.60
30174;DHT22;16985;50.814;8.530;2022-07-09T02:26:10;14.00;97.70
30174;DHT22;16985;50.814;8.530;2022-07-09T02:28:36;14.00;97.70
30174;DHT22;16985;50.814;8.530;2022-07-09T02:31:02;13.90;98.10
30174;DHT22;16985;50.814;8.530;2022-07-09T02:33:28;13.80;98.40
30174;DHT22;16985;50.814;8.530;2022-07-09T02:35:56;13.90;98.30
30174;DHT22;16985;50.814;8.530;2022-07-09T02:38:21;13.90;98.50
30174;DHT22;16985;50.814;8.530;2022-07-09T02:40:47;13.80;98.70
30174;DHT22;16985;50.814;8.530;2022-07-09T02:43:13;13.80;98.80
30174;DHT22;16985;50.814;8.530;2022-07-09T02:45:39;13.80;99.00
30174;DHT22;16985;50.814;8.530;2022-07-09T02:48:05;13.80;98.90
30174;DHT22;16985;50.814;8.530;2022-07-09T02:50:31;13.80;98.90
30174;DHT22;16985;50.814;8.530;2022-07-09T02:52:57;13.80;99.00
30174;DHT22;16985;50.814;8.530;2022-07-09T02:55:22;13.70;99.20
30174;DHT22;16985;50.814;8.530;2022-07-09T02:57:48;13.70;99.60
30174;DHT22;16985;50.814;8.530;2022-07-09T03:00:14;13.70;99.80
30174;DHT22;16985;50.814;8.530;2022-07-09T03:02:40;13.60;99.80
30174;DHT22;16985;50.814;8.530;2022-07-09T03:05:06;13.60;99.70
30174;DHT22;16985;50.814;8.530;2022-07-09T03:07:32;13.70;99.80
30174;DHT22;16985;50.814;8.530;2022-07-09T03:09:58;13.60;99.90
30174;DHT22;16985;50.814;8.530;2022-07-09T03:12:24;13.60;99.80
30174;DHT22;16985;50.814;8.530;2022-07-09T03:14:50;13.60;99.90
30174;DHT22;16985;50.814;8.530;2022-07-09T03:17:15;13.60;99.90
30174;DHT22;16985;50.814;8.530;2022-07-09T03:19:41;13.60;99.90
30174;DHT22;16985;50.814;8.530;2022-07-09T03:22:12;13.60;99.90
30174;DHT22;16985;50.814;8.530;2022-07-09T03:25:25;13.60;99.90
30174;DHT22;16985;50.814;8.530;2022-07-09T03:28:01;13.60;99.90
30174;DHT22;16985;50.814;8.530;2022-07-09T03:31:36;13.60;99.90
30174;DHT22;16985;50.814;8.530;2022-07-09T03:38:23;13.50;99.90
30174;DHT22;16985;50.814;8.530;2022-07-09T03:41:10;13.60;99.90
30174;DHT22;16985;50.814;8.530;2022-07-09T03:44:01;13.50;99.90
30174;DHT22;16985;50.814;8.530;2022-07-09T03:46:41;13.50;99.90
30174;DHT22;16985;50.814;8.530;2022-07-09T03:50:10;13.50;99.90
30174;DHT22;16985;50.814;8.530;2022-07-09T03:56:39;13.60;99.90
30174;DHT22;16985;50.814;8.530;2022-07-09T03:59:05;13.60;99.90
30174;DHT22;16985;50.814;8.530;2022-07-09T04:01:31;13.60;99.90
30174;DHT22;16985;50.814;8.530;2022-07-09T04:03:57;13.60;99.90
30174;DHT22;16985;50.814;8.530;2022-07-09T04:06:24;13.60;99.90
30174;DHT22;16985;50.814;8.530;2022-07-09T04:08:50;13.70;99.90
30174;DHT22;16985;50.814;8.530;2022-07-09T04:11:16;13.70;99.90
30174;DHT22;16985;50.814;8.530;2022-07-09T04:13:42;13.70;99.90
30174;DHT22;16985;50.814;8.530;2022-07-09T04:16:08;13.70;99.90
30174;DHT22;16985;50.814;8.530;2022-07-09T04:18:34;13.70;99.90
30174;DHT22;16985;50.814;8.530;2022-07-09T04:21:00;13.70;99.90
30174;DHT22;16985;50.814;8.530;2022-07-09T04:23:26;13.70;99.90
30174;DHT22;16985;50.814;8.530;2022-07-09T04:25:53;13.70;99.90
30174;DHT22;16985;50.814;8.530;2022-07-09T04:28:19;13.70;99.90
30174;DHT22;16985;50.814;8.530;2022-07-09T04:30:46;13.60;99.90
30174;DHT22;16985;50.814;8.530;2022-07-09T04:33:12;13.70;99.90
30174;DHT22;16985;50.814;8.530;2022-07-09T04:35:38;13.70;99.90
30174;DHT22;16985;50.814;8.530;2022-07-09T04:38:04;13.70;99.90
30174;DHT22;16985;50.814;8.530;2022-07-09T04:40:30;13.70;99.90
30174;DHT22;16985;50.814;8.530;2022-07-09T04:42:56;13.70;99.90
30174;DHT22;16985;50.814;8.530;2022-07-09T04:45:22;13.70;99.90
30174;DHT22;16985;50.814;8.530;2022-07-09T04:47:48;13.70;99.90
30174;DHT22;16985;50.814;8.530;2022-07-09T04:50:14;13.70;99.90
30174;DHT22;16985;50.814;8.530;2022-07-09T04:52:40;13.70;99.90
30174;DHT22;16985;50.814;8.530;2022-07-09T04:55:06;13.70;99.90
30174;DHT22;16985;50.814;8.530;2022-07-09T04:57:33;13.80;99.90
30174;DHT22;16985;50.814;8.530;2022-07-09T05:00:02;13.80;99.90
30174;DHT22;16985;50.814;8.530;2022-07-09T05:02:28;13.70;99.90
30174;DHT22;16985;50.814;8.530;2022-07-09T05:04:54;13.80;99.90
30174;DHT22;16985;50.814;8.530;2022-07-09T05:07:20;13.80;99.90
30174;DHT22;16985;50.814;8.530;2022-07-09T05:09:46;13.70;99.90
30174;DHT22;16985;50.814;8.530;2022-07-09T05:12:12;13.80;99.90
30174;DHT22;16985;50.814;8.530;2022-07-09T05:14:38;13.80;99.90
30174;DHT22;16985;50.814;8.530;2022-07-09T05:17:04;13.80;99.90
30174;DHT22;16985;50.814;8.530;2022-07-09T05:19:31;13.80;99.90
30174;DHT22;16985;50.814;8.530;2022-07-09T05:21:57;13.80;99.90
30174;DHT22;16985;50.814;8.530;2022-07-09T05:24:23;13.90;99.90
30174;DHT22;16985;50.814;8.530;2022-07-09T05:26:49;13.90;99.90
30174;DHT22;16985;50.814;8.530;2022-07-09T05:29:15;13.90;99.90
30174;DHT22;16985;50.814;8.530;2022-07-09T05:31:42;13.90;99.90
30174;DHT22;16985;50.814;8.530;2022-07-09T05:34:08;14.00;99.90
30174;DHT22;16985;50.814;8.530;2022-07-09T05:36:34;14.00;99.90
30174;DHT22;16985;50.814;8.530;2022-07-09T05:39:00;14.10;99.90
30174;DHT22;16985;50.814;8.530;2022-07-09T05:41:26;14.10;99.90
30174;DHT22;16985;50.814;8.530;2022-07-09T05:43:53;14.20;99.90
30174;DHT22;16985;50.814;8.530;2022-07-09T05:46:19;14.20;99.90
30174;DHT22;16985;50.814;8.530;2022-07-09T05:48:46;14.30;99.90
30174;DHT22;16985;50.814;8.530;2022-07-09T05:51:11;14.30;99.90
30174;DHT22;16985;50.814;8.530;2022-07-09T05:53:37;14.40;99.90
30174;DHT22;16985;50.814;8.530;2022-07-09T05:56:04;14.40;99.90
30174;DHT22;16985;50.814;8.530;2022-07-09T05:58:30;14.50;99.90
30174;DHT22;16985;50.814;8.530;2022-07-09T06:00:55;14.60;99.90
30174;DHT22;16985;50.814;8.530;2022-07-09T06:03:21;14.60;99.90
30174;DHT22;16985;50.814;8.530;2022-07-09T06:05:47;14.70;99.90
30174;DHT22;16985;50.814;8.530;2022-07-09T06:08:13;14.80;99.90
30174;DHT22;16985;50.814;8.530;2022-07-09T06:10:39;14.80;99.90
30174;DHT22;16985;50.814;8.530;2022-07-09T06:13:04;14.90;99.90
30174;DHT22;16985;50.814;8.530;2022-07-09T06:15:30;15.00;99.90
30174;DHT22;16985;50.814;8.530;2022-07-09T06:17:56;15.00;99.90
30174;DHT22;16985;50.814;8.530;2022-07-09T06:20:22;15.00;99.90
30174;DHT22;16985;50.814;8.530;2022-07-09T06:22:48;15.10;99.90
30174;DHT22;16985;50.814;8.530;2022-07-09T06:25:14;15.20;99.90
30174;DHT22;16985;50.814;8.530;2022-07-09T06:27:40;15.20;99.90
30174;DHT22;16985;50.814;8.530;2022-07-09T06:30:07;15.30;99.90
30174;DHT22;16985;50.814;8.530;2022-07-09T06:32:32;15.40;99.90
30174;DHT22;16985;50.814;8.530;2022-07-09T06:34:58;15.50;99.90
30174;DHT22;16985;50.814;8.530;2022-07-09T06:37:24;15.60;99.90
30174;DHT22;16985;50.814;8.530;2022-07-09T06:39:50;15.60;99.90
30174;DHT22;16985;50.814;8.530;2022-07-09T06:42:17;15.70;99.90
30174;DHT22;16985;50.814;8.530;2022-07-09T06:44:46;15.80;99.90
30174;DHT22;16985;50.814;8.530;2022-07-09T06:47:12;15.90;99.90
30174;DHT22;16985;50.814;8.530;2022-07-09T06:49:38;16.10;99.90
30174;DHT22;16985;50.814;8.530;2022-07-09T06:52:05;16.20;99.90
30174;DHT22;16985;50.814;8.530;2022-07-09T06:54:31;16.30;99.90
30174;DHT22;16985;50.814;8.530;2022-07-09T06:56:56;16.40;99.90
30174;DHT22;16985;50.814;8.530;2022-07-09T06:59:25;16.50;99.90
30174;DHT22;16985;50.814;8.530;2022-07-09T07:01:51;16.60;99.90
30174;DHT22;16985;50.814;8.530;2022-07-09T07:04:17;16.70;99.90
30174;DHT22;16985;50.814;8.530;2022-07-09T07:06:43;16.80;99.90
30174;DHT22;16985;50.814;8.530;2022-07-09T07:09:10;16.80;99.90
30174;DHT22;16985;50.814;8.530;2022-07-09T07:11:35;16.90;99.90
30174;DHT22;16985;50.814;8.530;2022-07-09T07:14:01;17.00;99.90
30174;DHT22;16985;50.814;8.530;2022-07-09T07:16:27;17.10;99.90
30174;DHT22;16985;50.814;8.530;2022-07-09T07:18:53;17.10;99.90
30174;DHT22;16985;50.814;8.530;2022-07-09T07:21:20;17.20;99.90
30174;DHT22;16985;50.814;8.530;2022-07-09T07:23:45;17.20;99.90
30174;DHT22;16985;50.814;8.530;2022-07-09T07:26:11;17.30;99.90
30174;DHT22;16985;50.814;8.530;2022-07-09T07:28:37;17.30;99.90
30174;DHT22;16985;50.814;8.530;2022-07-09T07:31:03;17.40;99.90
30174;DHT22;16985;50.814;8.530;2022-07-09T07:33:28;17.50;99.90
30174;DHT22;16985;50.814;8.530;2022-07-09T07:35:54;17.60;99.90
30174;DHT22;16985;50.814;8.530;2022-07-09T07:38:20;17.70;99.90
30174;DHT22;16985;50.814;8.530;2022-07-09T07:40:46;17.80;99.90
30174;DHT22;16985;50.814;8.530;2022-07-09T07:43:12;17.90;99.90
30174;DHT22;16985;50.814;8.530;2022-07-09T07:45:38;18.00;99.90
30174;DHT22;16985;50.814;8.530;2022-07-09T07:48:04;18.10;99.90
30174;DHT22;16985;50.814;8.530;2022-07-09T07:50:30;18.20;99.90
30174;DHT22;16985;50.814;8.530;2022-07-09T07:52:58;18.30;99.90
30174;DHT22;16985;50.814;8.530;2022-07-09T07:55:26;18.40;99.90
30174;DHT22;16985;50.814;8.530;2022-07-09T07:58:03;18.50;99.90
30174;DHT22;16985;50.814;8.530;2022-07-09T08:00:30;18.60;99.90
30174;DHT22;16985;50.814;8.530;2022-07-09T08:02:56;18.60;99.80
30174;DHT22;16985;50.814;8.530;2022-07-09T08:05:21;18.60;99.50
30174;DHT22;16985;50.814;8.530;2022-07-09T08:07:47;18.60;99.00
30174;DHT22;16985;50.814;8.530;2022-07-09T08:10:13;18.70;98.50
30174;DHT22;16985;50.814;8.530;2022-07-09T08:12:39;18.70;98.20
30174;DHT22;16985;50.814;8.530;2022-07-09T08:15:05;18.80;98.00
30174;DHT22;16985;50.814;8.530;2022-07-09T08:17:32;18.80;97.60
30174;DHT22;16985;50.814;8.530;2022-07-09T08:19:57;19.00;97.20
30174;DHT22;16985;50.814;8.530;2022-07-09T08:22:23;19.10;96.60
30174;DHT22;16985;50.814;8.530;2022-07-09T08:24:49;19.20;96.00
30174;DHT22;16985;50.814;8.530;2022-07-09T08:27:15;19.30;95.70
30174;DHT22;16985;50.814;8.530;2022-07-09T08:29:40;19.30;94.70
30174;DHT22;16985;50.814;8.530;2022-07-09T08:32:06;19.40;93.90
30174;DHT22;16985;50.814;8.530;2022-07-09T08:34:32;19.70;93.30
30174;DHT22;16985;50.814;8.530;2022-07-09T08:36:58;19.90;93.20
30174;DHT22;16985;50.814;8.530;2022-07-09T08:39:24;20.10;91.00
30174;DHT22;16985;50.814;8.530;2022-07-09T08:41:50;20.30;90.50
30174;DHT22;16985;50.814;8.530;2022-07-09T08:44:17;20.50;90.30
30174;DHT22;16985;50.814;8.530;2022-07-09T08:46:45;20.60;87.90
30174;DHT22;16985;50.814;8.530;2022-07-09T08:49:11;20.60;87.30
30174;DHT22;16985;50.814;8.530;2022-07-09T08:51:41;20.70;86.80
30174;DHT22;16985;50.814;8.530;2022-07-09T08:54:08;20.70;86.30
30174;DHT22;16985;50.814;8.530;2022-07-09T08:56:34;20.80;85.40
30174;DHT22;16985;50.814;8.530;2022-07-09T08:59:01;20.80;84.60
30174;DHT22;16985;50.814;8.530;2022-07-09T09:01:27;21.00;84.20
30174;DHT22;16985;50.814;8.530;2022-07-09T09:03:54;21.10;83.80
30174;DHT22;16985;50.814;8.530;2022-07-09T09:06:21;21.20;83.70
30174;DHT22;16985;50.814;8.530;2022-07-09T09:08:47;21.40;81.20
30174;DHT22;16985;50.814;8.530;2022-07-09T09:11:24;21.50;80.70
30174;DHT22;16985;50.814;8.530;2022-07-09T09:13:51;21.70;80.50
30174;DHT22;16985;50.814;8.530;2022-07-09T09:16:19;21.80;79.80
30174;DHT22;16985;50.814;8.530;2022-07-09T09:18:53;21.90;79.40
30174;DHT22;16985;50.814;8.530;2022-07-09T09:21:25;22.00;77.90
30174;DHT22;16985;50.814;8.530;2022-07-09T09:23:56;22.10;76.90
30174;DHT22;16985;50.814;8.530;2022-07-09T09:26:27;22.10;75.40
30174;DHT22;16985;50.814;8.530;2022-07-09T09:28:58;22.30;75.30
30174;DHT22;16985;50.814;8.530;2022-07-09T09:31:26;22.50;75.00
30174;DHT22;16985;50.814;8.530;2022-07-09T09:34:15;22.70;74.80
30174;DHT22;16985;50.814;8.530;2022-07-09T09:36:46;22.80;74.60
30174;DHT22;16985;50.814;8.530;2022-07-09T09:39:19;23.00;74.40
30174;DHT22;16985;50.814;8.530;2022-07-09T09:42:02;23.10;73.60
30174;DHT22;16985;50.814;8.530;2022-07-09T09:44:34;23.30;71.70
30174;DHT22;16985;50.814;8.530;2022-07-09T09:47:04;23.30;70.90
30174;DHT22;16985;50.814;8.530;2022-07-09T09:49:30;23.50;70.40
30174;DHT22;16985;50.814;8.530;2022-07-09T09:58:00;23.80;70.10
30174;DHT22;16985;50.814;8.530;2022-07-09T10:00:33;24.00;68.80
30174;DHT22;16985;50.814;8.530;2022-07-09T10:03:11;24.10;68.30
30174;DHT22;16985;50.814;8.530;2022-07-09T10:05:44;24.20;67.50
30174;DHT22;16985;50.814;8.530;2022-07-09T10:08:42;24.30;67.20
30174;DHT22;16985;50.814;8.530;2022-07-09T10:11:36;24.40;66.00
30174;DHT22;16985;50.814;8.530;2022-07-09T10:14:31;24.30;65.60
30174;DHT22;16985;50.814;8.530;2022-07-09T10:17:38;24.20;66.10
30174;DHT22;16985;50.814;8.530;2022-07-09T10:20:33;24.30;66.20
30174;DHT22;16985;50.814;8.530;2022-07-09T10:23:05;24.40;66.70
30174;DHT22;16985;50.814;8.530;2022-07-09T10:25:49;24.60;66.30
30174;DHT22;16985;50.814;8.530;2022-07-09T10:28:42;24.70;65.60
30174;DHT22;16985;50.814;8.530;2022-07-09T10:31:11;24.70;65.20
30174;DHT22;16985;50.814;8.530;2022-07-09T10:34:47;24.70;64.60
30174;DHT22;16985;50.814;8.530;2022-07-09T10:37:56;24.80;64.60
30174;DHT22;16985;50.814;8.530;2022-07-09T10:40:36;24.80;64.80
30174;DHT22;16985;50.814;8.530;2022-07-09T10:43:57;24.70;65.30
30174;DHT22;16985;50.814;8.530;2022-07-09T10:46:34;24.60;64.60
30174;DHT22;16985;50.814;8.530;2022-07-09T10:49:09;24.50;64.90
30174;DHT22;16985;50.814;8.530;2022-07-09T10:51:43;24.40;64.80
30174;DHT22;16985;50.814;8.530;2022-07-09T10:54:19;24.40;65.10
30174;DHT22;16985;50.814;8.530;2022-07-09T10:56:53;24.50;65.50
30174;DHT22;16985;50.814;8.530;2022-07-09T10:59:33;24.40;65.00
30174;DHT22;16985;50.814;8.530;2022-07-09T11:02:01;24.40;64.90
30174;DHT22;16985;50.814;8.530;2022-07-09T11:04:28;24.30;64.90
30174;DHT22;16985;50.814;8.530;2022-07-09T11:06:55;24.20;64.60
30174;DHT22;16985;50.814;8.530;2022-07-09T11:09:22;24.10;64.30
30174;DHT22;16985;50.814;8.530;2022-07-09T11:11:50;24.00;64.60
30174;DHT22;16985;50.814;8.530;2022-07-09T11:14:16;24.00;65.10
30174;DHT22;16985;50.814;8.530;2022-07-09T11:16:41;24.00;65.10
30174;DHT22;16985;50.814;8.530;2022-07-09T11:19:14;24.00;64.70
30174;DHT22;16985;50.814;8.530;2022-07-09T11:21:40;24.00;64.60
30174;DHT22;16985;50.814;8.530;2022-07-09T11:24:14;24.00;64.90
30174;DHT22;16985;50.814;8.530;2022-07-09T11:26:40;24.00;64.90
30174;DHT22;16985;50.814;8.530;2022-07-09T11:29:10;24.00;64.70
30174;DHT22;16985;50.814;8.530;2022-07-09T11:31:36;24.00;64.20
30174;DHT22;16985;50.814;8.530;2022-07-09T11:34:04;23.90;63.20
30174;DHT22;16985;50.814;8.530;2022-07-09T11:36:43;23.90;63.60
30174;DHT22;16985;50.814;8.530;2022-07-09T11:39:20;23.80;63.90
30174;DHT22;16985;50.814;8.530;2022-07-09T11:41:57;23.80;64.10
30174;DHT22;16985;50.814;8.530;2022-07-09T11:44:33;23.80;64.40
30174;DHT22;16985;50.814;8.530;2022-07-09T11:49:43;23.80;64.80
30174;DHT22;16985;50.814;8.530;2022-07-09T11:55:08;23.70;64.50
30174;DHT22;16985;50.814;8.530;2022-07-09T11:57:35;23.60;64.40
30174;DHT22;16985;50.814;8.530;2022-07-09T12:00:04;23.60;64.70
30174;DHT22;16985;50.814;8.530;2022-07-09T12:02:39;23.60;64.90
30174;DHT22;16985;50.814;8.530;2022-07-09T12:05:07;23.50;65.30
30174;DHT22;16985;50.814;8.530;2022-07-09T12:07:35;23.50;65.50
30174;DHT22;16985;50.814;8.530;2022-07-09T12:10:09;23.40;65.50
30174;DHT22;16985;50.814;8.530;2022-07-09T12:12:36;23.40;65.70
30174;DHT22;16985;50.814;8.530;2022-07-09T12:15:06;23.40;65.90
30174;DHT22;16985;50.814;8.530;2022-07-09T12:17:33;23.40;66.00
30174;DHT22;16985;50.814;8.530;2022-07-09T12:19:59;23.40;65.30
30174;DHT22;16985;50.814;8.530;2022-07-09T12:22:25;23.40;65.50
30174;DHT22;16985;50.814;8.530;2022-07-09T12:24:52;23.40;65.50
30174;DHT22;16985;50.814;8.530;2022-07-09T12:27:19;23.50;65.60
30174;DHT22;16985;50.814;8.530;2022-07-09T12:29:48;23.50;65.40
30174;DHT22;16985;50.814;8.530;2022-07-09T12:32:13;23.50;65.50
30174;DHT22;16985;50.814;8.530;2022-07-09T12:34:47;23.60;65.80
30174;DHT22;16985;50.814;8.530;2022-07-09T12:37:18;23.60;65.60
30174;DHT22;16985;50.814;8.530;2022-07-09T12:39:44;23.70;65.70
30174;DHT22;16985;50.814;8.530;2022-07-09T12:42:10;23.70;65.80
30174;DHT22;16985;50.814;8.530;2022-07-09T12:44:36;23.80;66.10
30174;DHT22;16985;50.814;8.530;2022-07-09T12:47:02;23.80;66.10
30174;DHT22;16985;50.814;8.530;2022-07-09T12:49:28;23.90;65.60
30174;DHT22;16985;50.814;8.530;2022-07-09T12:51:54;24.00;65.70
30174;DHT22;16985;50.814;8.530;2022-07-09T12:54:20;24.00;66.10
30174;DHT22;16985;50.814;8.530;2022-07-09T12:56:45;24.10;64.50
30174;DHT22;16985;50.814;8.530;2022-07-09T12:59:16;24.10;63.30
30174;DHT22;16985;50.814;8.530;2022-07-09T13:01:43;24.10;61.80
30174;DHT22;16985;50.814;8.530;2022-07-09T13:04:09;24.20;62.40
30174;DHT22;16985;50.814;8.530;2022-07-09T13:06:35;24.20;62.20
30174;DHT22;16985;50.814;8.530;2022-07-09T13:09:09;24.20;62.50
30174;DHT22;16985;50.814;8.530;2022-07-09T13:11:36;24.30;62.70
30174;DHT22;16985;50.814;8.530;2022-07-09T13:14:03;24.50;62.80
30174;DHT22;16985;50.814;8.530;2022-07-09T13:16:29;24.60;62.20
30174;DHT22;16985;50.814;8.530;2022-07-09T13:18:55;24.90;62.30
30174;DHT22;16985;50.814;8.530;2022-07-09T13:21:21;25.00;62.00
30174;DHT22;16985;50.814;8.530;2022-07-09T13:23:48;25.10;61.90
30174;DHT22;16985;50.814;8.530;2022-07-09T13:26:15;25.20;61.70
30174;DHT22;16985;50.814;8.530;2022-07-09T13:28:42;25.20;61.80
30174;DHT22;16985;50.814;8.530;2022-07-09T13:31:08;25.20;61.80
30174;DHT22;16985;50.814;8.530;2022-07-09T13:33:35;25.20;61.20
30174;DHT22;16985;50.814;8.530;2022-07-09T13:36:02;25.00;61.00
30174;DHT22;16985;50.814;8.530;2022-07-09T13:38:29;24.90;60.40
30174;DHT22;16985;50.814;8.530;2022-07-09T13:40:55;24.80;61.00
30174;DHT22;16985;50.814;8.530;2022-07-09T13:43:21;24.80;61.00
30174;DHT22;16985;50.814;8.530;2022-07-09T13:45:49;24.80;61.10
30174;DHT22;16985;50.814;8.530;2022-07-09T13:48:16;24.90;61.20
30174;DHT22;16985;50.814;8.530;2022-07-09T13:50:41;25.10;61.50
30174;DHT22;16985;50.814;8.530;2022-07-09T13:53:07;25.30;60.20
30174;DHT22;16985;50.814;8.530;2022-07-09T13:55:34;25.50;59.80
30174;DHT22;16985;50.814;8.530;2022-07-09T13:58:00;25.50;59.30
30174;DHT22;16985;50.814;8.530;2022-07-09T14:00:26;25.50;59.30
30174;DHT22;16985;50.814;8.530;2022-07-09T14:02:52;25.50;59.60
30174;DHT22;16985;50.814;8.530;2022-07-09T14:05:18;25.50;59.90
30174;DHT22;16985;50.814;8.530;2022-07-09T14:07:45;25.40;59.60
30174;DHT22;16985;50.814;8.530;2022-07-09T14:10:12;25.20;59.40
30174;DHT22;16985;50.814;8.530;2022-07-09T14:12:38;25.10;58.40
30174;DHT22;16985;50.814;8.530;2022-07-09T14:15:04;25.00;59.20
30174;DHT22;16985;50.814;8.530;2022-07-09T14:17:30;24.80;59.00
30174;DHT22;16985;50.814;8.530;2022-07-09T14:19:56;24.70;59.10
30174;DHT22;16985;50.814;8.530;2022-07-09T14:22:24;24.50;59.00
30174;DHT22;16985;50.814;8.530;2022-07-09T14:24:50;24.40;59.80
30174;DHT22;16985;50.814;8.530;2022-07-09T14:27:16;24.30;60.10
30174;DHT22;16985;50.814;8.530;2022-07-09T14:29:43;24.20;61.20
30174;DHT22;16985;50.814;8.530;2022-07-09T14:32:09;24.10;62.50
30174;DHT22;16985;50.814;8.530;2022-07-09T14:34:35;24.00;64.10
30174;DHT22;16985;50.814;8.530;2022-07-09T14:37:01;23.80;64.70
30174;DHT22;16985;50.814;8.530;2022-07-09T14:39:27;23.60;65.60
30174;DHT22;16985;50.814;8.530;2022-07-09T14:41:53;23.40;67.30
30174;DHT22;16985;50.814;8.530;2022-07-09T14:44:19;23.20;69.00
30174;DHT22;16985;50.814;8.530;2022-07-09T14:46:45;23.00;71.30
30174;DHT22;16985;50.814;8.530;2022-07-09T14:49:11;22.80;72.60
30174;DHT22;16985;50.814;8.530;2022-07-09T14:51:37;22.70;74.80
30174;DHT22;16985;50.814;8.530;2022-07-09T14:54:04;22.60;75.40
30174;DHT22;16985;50.814;8.530;2022-07-09T14:56:31;22.40;76.70
30174;DHT22;16985;50.814;8.530;2022-07-09T14:58:57;22.30;77.30
30174;DHT22;16985;50.814;8.530;2022-07-09T15:01:23;22.20;77.90
30174;DHT22;16985;50.814;8.530;2022-07-09T15:03:49;22.10;78.20
30174;DHT22;16985;50.814;8.530;2022-07-09T15:06:14;22.00;79.00
30174;DHT22;16985;50.814;8.530;2022-07-09T15:08:41;21.90;80.30
30174;DHT22;16985;50.814;8.530;2022-07-09T15:11:06;21.80;80.60
30174;DHT22;16985;50.814;8.530;2022-07-09T15:13:32;21.80;81.90
30174;DHT22;16985;50.814;8.530;2022-07-09T15:15:58;21.70;82.50
30174;DHT22;16985;50.814;8.530;2022-07-09T15:18:24;21.60;83.20
30174;DHT22;16985;50.814;8.530;2022-07-09T15:20:50;21.60;84.00
30174;DHT22;16985;50.814;8.530;2022-07-09T15:23:16;21.50;84.50
30174;DHT22;16985;50.814;8.530;2022-07-09T15:25:42;21.50;85.90
30174;DHT22;16985;50.814;8.530;2022-07-09T15:28:07;21.50;85.80
30174;DHT22;16985;50.814;8.530;2022-07-09T15:30:33;21.50;86.20
30174;DHT22;16985;50.814;8.530;2022-07-09T15:32:59;21.40;86.90
30174;DHT22;16985;50.814;8.530;2022-07-09T15:35:25;21.40;88.20
30174;DHT22;16985;50.814;8.530;2022-07-09T15:37:51;21.40;88.30
30174;DHT22;16985;50.814;8.530;2022-07-09T15:40:17;21.40;88.90
30174;DHT22;16985;50.814;8.530;2022-07-09T15:42:45;21.40;89.60
30174;DHT22;16985;50.814;8.530;2022-07-09T15:45:13;21.40;89.90
30174;DHT22;16985;50.814;8.530;2022-07-09T15:47:39;21.30;89.70
30174;DHT22;16985;50.814;8.530;2022-07-09T15:50:07;21.20;88.90
30174;DHT22;16985;50.814;8.530;2022-07-09T15:52:37;21.10;89.10
30174;DHT22;16985;50.814;8.530;2022-07-09T15:55:06;21.10;89.20
30174;DHT22;16985;50.814;8.530;2022-07-09T15:57:33;21.00;89.50
30174;DHT22;16985;50.814;8.530;2022-07-09T16:00:00;20.90;89.90